This is the latest recevied weather packets stored in our database for station/object SP6PGH-13. If no packets are shown the sender has not sent any weather packets the latest 10 day(s).
| Time | Temp. | Humidity | Pressure | Rain* | Wind** | Luminosity | Snow |
|---|---|---|---|---|---|---|---|
| 1777567334 | 16.67° C | 35% | 1014.1 hPa | - | - | 68 W/m² | - |
| 1777566433 | 16.67° C | 35% | 1014.1 hPa | - | - | 97 W/m² | - |
| 1777565532 | 15.56° C | 37% | 1014.1 hPa | - | - | 130 W/m² | - |
| 1777564631 | 16.67° C | 36% | 1014.2 hPa | - | - | 167 W/m² | - |
| 1777563730 | 16.11° C | 36% | 1014.2 hPa | - | - | 206 W/m² | - |
| 1777562829 | 16.67° C | 35% | 1014.3 hPa | - | - | 235 W/m² | - |
| 1777561927 | 16.11° C | 36% | 1014.4 hPa | - | - | 276 W/m² | - |
| 1777561031 | 15° C | 36% | 1014.4 hPa | - | - | 314 W/m² | - |
| 1777560126 | 15.56° C | 33% | 1014.6 hPa | - | - | 370 W/m² | - |
| 1777559225 | 16.11° C | 32% | 1014.8 hPa | - | - | 411 W/m² | - |
| 1777558324 | 16.67° C | 32% | 1014.9 hPa | - | - | 460 W/m² | - |
| 1777557423 | 15.56° C | 33% | 1014.9 hPa | - | - | 452 W/m² | - |
| 1777556522 | 14.44° C | 36% | 1015 hPa | - | - | 478 W/m² | - |
| 1777555621 | 16.11° C | 32% | 1015.1 hPa | - | - | 675 W/m² | - |
| 1777554720 | 16.11° C | 33% | 1015.3 hPa | - | - | 723 W/m² | - |
| 1777553819 | 15° C | 34% | 1015.5 hPa | - | - | 771 W/m² | - |
| 1777552918 | 14.44° C | 34% | 1015.6 hPa | - | - | 289 W/m² | - |
| 1777552017 | 15.56° C | 34% | 1015.6 hPa | - | - | 542 W/m² | - |
| 1777551115 | 14.44° C | 33% | 1015.7 hPa | - | - | 667 W/m² | - |
| 1777550214 | 15° C | 33% | 1016 hPa | - | - | 157 W/m² | - |
| 1777549312 | 14.44° C | 33% | 1016.1 hPa | - | - | 232 W/m² | - |
| 1777548411 | 15° C | 32% | 1016.3 hPa | - | - | 755 W/m² | - |
| 1777547510 | 13.33° C | 34% | 1016.4 hPa | - | - | 424 W/m² | - |
| 1777546609 | 15° C | 32% | 1016.5 hPa | - | - | 891 W/m² | - |
| 1777545708 | 14.44° C | 34% | 1016.5 hPa | - | - | 890 W/m² | - |
* Rain since midnight (hover to see other rain measurements)
** Current wind speed in m/s (hover to see current wind gust speed)